Fort Benning, GA

9:08 AM EDT en Julio 30, 2014 (GMT -0400)
Columbus Metro (KCSG) Alt 397 ft | 32.52 °N, 84.94 °W | Change Station

Current weather conditions updated 17 minutes ago

Clear
Despejado
68 ° F
Sensación térmica 68 ° F
N
5
Viento Variable Viento desde Norte

Hoy se prevé una temperatura muy similar a la de ayer.

Hoy
Alta -- | Baja -- ° F
--% Posibilidad de precipitaciones
Ayer
Alta -- | Baja -- ° F
Precip. -- pul
6:52 AM 8:38 PM
Creciente, 11% visible
Presión 30.03 pul
Visibilidad 10.0 Millas
Nubes Despejado
Punto de rocío 54 ° F
Humedad 61%
Precipitaciones 0.00 pul
Espesor de la nieve No disponible.
UV 2 de una escala de 12
Polen 5.00 de una escala de 12
PM2.5 Buena
Flu Activity No disponible.
METAR KCSG 301251Z 36004KT 10SM CLR 20/12 A3004 RMK AO2 SLP168 T02000122

More Conditions Fewer Conditions

Presión 30.03 pul
Visibilidad 10.0 Millas
Nubes Despejado
Punto de rocío 54 ° F
Humedad 61%
Precipitaciones 0.00 pul
Espesor de la nieve No disponible.
UV 2 de una escala de 12
Polen 5.00 de una escala de 12
PM2.5 Buena
Flu Activity No disponible.
METAR KCSG 301251Z 36004KT 10SM CLR 20/12 A3004 RMK AO2 SLP168 T02000122

More Conditions Fewer Conditions

10-Day Weather Forecast

Almanac

Astronomía

Jul. 30, 2014 Salida Puesta
Hora real 6:52 AM EDT 8:38 PM EDT
Crepúsculo civil 6:25 AM EDT 9:05 PM EDT
Crepúsculo náutico 5:53 AM EDT 9:38 PM EDT
Crepúsculo astronómico 5:19 AM EDT 10:12 PM EDT
Luna 10:09 AM EDT 10:37 PM EDT
Horas de luz 14h 39m
Horas de luz
13h 46m
Tomorrow will be 1m 26s shorter.
Creciente, 11% of the Moon is Illuminated
Hoy
Creciente
Ago 3
Cuarto creciente
Ago 10
Luna llena
Ago 17
Cuarto menguante
Ago 25
Nueva

Extremos de hoy

Máximos del estado Bajos del estado

Community

WunderPhotos

Upload Photos

1,739,071 ¡fotos cargadas!

Nearby

Calidad del aire

  Calidad del aire Índice AQ Contaminante
Ayer Buena
OZONE
Ayer Buena
PM2.5
Real Buena
PM2.5

Grosos de nieve

Estación Profundido Altura
No tenemos constancia de nieve nueva.

Actividad de terremotos

Ciudad Distance Mag. Tiempo y dato
No hay informes recientes de la actividad sísmica.
Magnitud mínima muestra es 2,5.

Temperaturas de aguas costeras

Lugar Temperatura
Sin partes meteorológicos de las estaciones

Estaciones meteorológicas cercanas

Ubicación de la estación Temp. Punto de rocío Humedad Viento Precip. Alt Actualizado Tipo
Foxfire, Columbus, GA 68.1 ° F 58 ° F 71% Oeste  a  0.0 mph 0.00 pul / hr 436 ft 9:03 AM EDT Normal
Lakewood Heights, Phenix City, AL 67.9 ° F 60 ° F 76% ENE  a  0.0 mph 0.00 pul / hr 394 ft 8:07 AM CDT Normal
Smiths Station, AL 64.3 ° F 59 ° F 82% Norte  a  0.0 mph 0.00 pul / hr 370 ft 9:06 AM EDT Normal
Fortson GA, Columbus, GA 66.0 ° F 58 ° F 75% Norte  a  1.0 mph 0.00 pul / hr 528 ft 9:08 AM EDT Rapid Fire
Phenix City, Phenix City, AL 66.5 ° F 59 ° F 77% NNE  a  1.0 mph 0.00 pul / hr 433 ft 8:05 AM CDT Normal

Show More Stations Show Fewer Stations